sensor_id;sensor_type;location;lat;lon;timestamp;temperature;humidity
20977;DHT22;10647;51.016;3.720;2022-07-29T00:00:52;21.30;84.00
20977;DHT22;10647;51.016;3.720;2022-07-29T00:03:19;21.30;84.20
20977;DHT22;10647;51.016;3.720;2022-07-29T00:05:47;21.30;84.30
20977;DHT22;10647;51.016;3.720;2022-07-29T00:08:14;21.30;84.60
20977;DHT22;10647;51.016;3.720;2022-07-29T00:10:42;21.20;84.60
20977;DHT22;10647;51.016;3.720;2022-07-29T00:13:12;21.20;84.60
20977;DHT22;10647;51.016;3.720;2022-07-29T00:15:39;21.20;84.70
20977;DHT22;10647;51.016;3.720;2022-07-29T00:18:07;21.10;84.80
20977;DHT22;10647;51.016;3.720;2022-07-29T00:20:34;21.10;84.90
20977;DHT22;10647;51.016;3.720;2022-07-29T00:23:02;21.00;85.20
20977;DHT22;10647;51.016;3.720;2022-07-29T00:25:29;21.00;85.20
20977;DHT22;10647;51.016;3.720;2022-07-29T00:27:57;20.90;85.30
20977;DHT22;10647;51.016;3.720;2022-07-29T00:30:24;20.90;85.40
20977;DHT22;10647;51.016;3.720;2022-07-29T00:32:52;20.90;85.60
20977;DHT22;10647;51.016;3.720;2022-07-29T00:35:19;20.90;85.70
20977;DHT22;10647;51.016;3.720;2022-07-29T00:38:05;20.80;85.80
20977;DHT22;10647;51.016;3.720;2022-07-29T00:40:33;20.80;85.90
20977;DHT22;10647;51.016;3.720;2022-07-29T00:43:00;20.70;86.10
20977;DHT22;10647;51.016;3.720;2022-07-29T00:45:28;20.70;86.30
20977;DHT22;10647;51.016;3.720;2022-07-29T00:47:56;20.60;86.50
20977;DHT22;10647;51.016;3.720;2022-07-29T00:50:24;20.60;86.70
20977;DHT22;10647;51.016;3.720;2022-07-29T00:52:52;20.60;87.00
20977;DHT22;10647;51.016;3.720;2022-07-29T00:55:20;20.50;87.20
20977;DHT22;10647;51.016;3.720;2022-07-29T00:57:47;20.40;87.30
20977;DHT22;10647;51.016;3.720;2022-07-29T01:00:18;20.50;87.70
20977;DHT22;10647;51.016;3.720;2022-07-29T01:02:47;20.40;87.80
20977;DHT22;10647;51.016;3.720;2022-07-29T01:05:24;20.30;87.90
20977;DHT22;10647;51.016;3.720;2022-07-29T01:07:51;20.30;88.10
20977;DHT22;10647;51.016;3.720;2022-07-29T01:10:19;20.30;88.20
20977;DHT22;10647;51.016;3.720;2022-07-29T01:12:49;20.30;88.50
20977;DHT22;10647;51.016;3.720;2022-07-29T01:15:18;20.30;88.60
20977;DHT22;10647;51.016;3.720;2022-07-29T01:20:25;20.30;88.90
20977;DHT22;10647;51.016;3.720;2022-07-29T01:23:12;20.20;89.00
20977;DHT22;10647;51.016;3.720;2022-07-29T01:26:03;20.20;89.20
20977;DHT22;10647;51.016;3.720;2022-07-29T01:31:31;20.10;89.80
20977;DHT22;10647;51.016;3.720;2022-07-29T01:34:01;19.90;90.00
20977;DHT22;10647;51.016;3.720;2022-07-29T01:36:47;19.90;90.30
20977;DHT22;10647;51.016;3.720;2022-07-29T01:41:38;19.70;90.50
20977;DHT22;10647;51.016;3.720;2022-07-29T01:44:14;19.70;90.60
20977;DHT22;10647;51.016;3.720;2022-07-29T01:46:40;19.70;90.80
20977;DHT22;10647;51.016;3.720;2022-07-29T01:49:17;19.70;91.00
20977;DHT22;10647;51.016;3.720;2022-07-29T01:51:52;19.60;91.00
20977;DHT22;10647;51.016;3.720;2022-07-29T01:54:26;19.60;91.10
20977;DHT22;10647;51.016;3.720;2022-07-29T01:57:15;19.60;91.20
20977;DHT22;10647;51.016;3.720;2022-07-29T01:59:46;19.50;91.40
20977;DHT22;10647;51.016;3.720;2022-07-29T02:02:18;19.50;91.50
20977;DHT22;10647;51.016;3.720;2022-07-29T02:04:51;19.50;91.60
20977;DHT22;10647;51.016;3.720;2022-07-29T02:07:22;19.40;91.70
20977;DHT22;10647;51.016;3.720;2022-07-29T02:09:57;19.40;91.80
20977;DHT22;10647;51.016;3.720;2022-07-29T02:12:26;19.40;91.90
20977;DHT22;10647;51.016;3.720;2022-07-29T02:15:03;19.40;92.30
20977;DHT22;10647;51.016;3.720;2022-07-29T02:17:42;19.30;92.10
20977;DHT22;10647;51.016;3.720;2022-07-29T02:20:07;19.30;92.20
20977;DHT22;10647;51.016;3.720;2022-07-29T02:22:48;19.30;92.40
20977;DHT22;10647;51.016;3.720;2022-07-29T02:25:17;19.20;92.50
20977;DHT22;10647;51.016;3.720;2022-07-29T02:27:48;19.20;92.60
20977;DHT22;10647;51.016;3.720;2022-07-29T02:30:19;19.10;92.70
20977;DHT22;10647;51.016;3.720;2022-07-29T02:32:50;19.10;92.80
20977;DHT22;10647;51.016;3.720;2022-07-29T02:35:21;19.10;92.80
20977;DHT22;10647;51.016;3.720;2022-07-29T02:37:51;19.10;93.00
20977;DHT22;10647;51.016;3.720;2022-07-29T02:40:39;19.00;93.10
20977;DHT22;10647;51.016;3.720;2022-07-29T02:43:11;19.00;93.30
20977;DHT22;10647;51.016;3.720;2022-07-29T02:45:58;19.00;93.40
20977;DHT22;10647;51.016;3.720;2022-07-29T02:48:36;18.90;93.70
20977;DHT22;10647;51.016;3.720;2022-07-29T02:51:08;18.90;93.60
20977;DHT22;10647;51.016;3.720;2022-07-29T02:53:37;18.90;93.70
20977;DHT22;10647;51.016;3.720;2022-07-29T02:56:08;18.90;93.80
20977;DHT22;10647;51.016;3.720;2022-07-29T02:58:42;18.80;93.90
20977;DHT22;10647;51.016;3.720;2022-07-29T03:01:21;18.80;94.10
20977;DHT22;10647;51.016;3.720;2022-07-29T03:03:48;18.80;94.20
20977;DHT22;10647;51.016;3.720;2022-07-29T03:06:17;18.80;94.30
20977;DHT22;10647;51.016;3.720;2022-07-29T03:08:45;18.70;94.50
20977;DHT22;10647;51.016;3.720;2022-07-29T03:11:13;18.70;94.50
20977;DHT22;10647;51.016;3.720;2022-07-29T03:13:42;18.70;94.60
20977;DHT22;10647;51.016;3.720;2022-07-29T03:16:10;18.70;94.80
20977;DHT22;10647;51.016;3.720;2022-07-29T03:18:39;18.70;94.80
20977;DHT22;10647;51.016;3.720;2022-07-29T03:21:08;18.70;94.90
20977;DHT22;10647;51.016;3.720;2022-07-29T03:23:36;18.60;95.30
20977;DHT22;10647;51.016;3.720;2022-07-29T03:26:03;18.60;95.10
20977;DHT22;10647;51.016;3.720;2022-07-29T03:28:31;18.60;95.20
20977;DHT22;10647;51.016;3.720;2022-07-29T03:30:58;18.60;95.40
20977;DHT22;10647;51.016;3.720;2022-07-29T03:33:26;18.50;95.50
20977;DHT22;10647;51.016;3.720;2022-07-29T03:35:55;18.50;95.50
20977;DHT22;10647;51.016;3.720;2022-07-29T03:38:25;18.50;95.70
20977;DHT22;10647;51.016;3.720;2022-07-29T03:41:00;18.50;95.90
20977;DHT22;10647;51.016;3.720;2022-07-29T03:43:25;18.50;96.00
20977;DHT22;10647;51.016;3.720;2022-07-29T03:45:55;18.50;96.10
20977;DHT22;10647;51.016;3.720;2022-07-29T03:48:25;18.40;96.20
20977;DHT22;10647;51.016;3.720;2022-07-29T03:50:54;18.40;96.70
20977;DHT22;10647;51.016;3.720;2022-07-29T03:53:23;18.40;96.50
20977;DHT22;10647;51.016;3.720;2022-07-29T03:55:53;18.40;96.60
20977;DHT22;10647;51.016;3.720;2022-07-29T03:58:21;18.40;96.70
20977;DHT22;10647;51.016;3.720;2022-07-29T04:00:50;18.40;96.80
20977;DHT22;10647;51.016;3.720;2022-07-29T04:03:18;18.30;96.90
20977;DHT22;10647;51.016;3.720;2022-07-29T04:06:00;18.30;97.00
20977;DHT22;10647;51.016;3.720;2022-07-29T04:08:28;18.30;97.10
20977;DHT22;10647;51.016;3.720;2022-07-29T04:10:56;18.30;97.20
20977;DHT22;10647;51.016;3.720;2022-07-29T04:13:23;18.30;97.30
20977;DHT22;10647;51.016;3.720;2022-07-29T04:15:51;18.30;97.40
20977;DHT22;10647;51.016;3.720;2022-07-29T04:18:19;18.30;97.60
20977;DHT22;10647;51.016;3.720;2022-07-29T04:20:46;18.30;97.70
20977;DHT22;10647;51.016;3.720;2022-07-29T04:23:14;18.30;97.80
20977;DHT22;10647;51.016;3.720;2022-07-29T04:25:41;18.30;97.90
20977;DHT22;10647;51.016;3.720;2022-07-29T04:28:10;18.30;98.00
20977;DHT22;10647;51.016;3.720;2022-07-29T04:30:48;18.30;98.10
20977;DHT22;10647;51.016;3.720;2022-07-29T04:33:21;18.30;98.20
20977;DHT22;10647;51.016;3.720;2022-07-29T04:35:55;18.30;98.20
20977;DHT22;10647;51.016;3.720;2022-07-29T04:38:22;18.30;98.30
20977;DHT22;10647;51.016;3.720;2022-07-29T04:41:00;18.40;98.40
20977;DHT22;10647;51.016;3.720;2022-07-29T04:43:28;18.40;98.40
20977;DHT22;10647;51.016;3.720;2022-07-29T04:45:59;18.40;98.50
20977;DHT22;10647;51.016;3.720;2022-07-29T04:48:27;18.50;98.60
20977;DHT22;10647;51.016;3.720;2022-07-29T04:50:55;18.50;98.60
20977;DHT22;10647;51.016;3.720;2022-07-29T04:58:54;18.70;98.90
20977;DHT22;10647;51.016;3.720;2022-07-29T05:01:21;18.70;98.70
20977;DHT22;10647;51.016;3.720;2022-07-29T05:03:52;18.80;98.70
20977;DHT22;10647;51.016;3.720;2022-07-29T05:06:22;18.90;98.70
20977;DHT22;10647;51.016;3.720;2022-07-29T05:09:01;18.90;98.60
20977;DHT22;10647;51.016;3.720;2022-07-29T05:11:35;19.00;98.60
20977;DHT22;10647;51.016;3.720;2022-07-29T05:14:04;19.10;98.50
20977;DHT22;10647;51.016;3.720;2022-07-29T05:16:38;19.10;98.50
20977;DHT22;10647;51.016;3.720;2022-07-29T05:19:12;19.20;98.40
20977;DHT22;10647;51.016;3.720;2022-07-29T05:21:59;19.30;98.40
20977;DHT22;10647;51.016;3.720;2022-07-29T05:24:27;19.30;98.60
20977;DHT22;10647;51.016;3.720;2022-07-29T05:26:54;19.30;98.20
20977;DHT22;10647;51.016;3.720;2022-07-29T05:29:25;19.40;98.10
20977;DHT22;10647;51.016;3.720;2022-07-29T05:31:53;19.50;98.10
20977;DHT22;10647;51.016;3.720;2022-07-29T05:34:27;19.60;97.90
20977;DHT22;10647;51.016;3.720;2022-07-29T05:36:54;19.70;97.80
20977;DHT22;10647;51.016;3.720;2022-07-29T05:39:28;19.80;97.60
20977;DHT22;10647;51.016;3.720;2022-07-29T05:41:59;19.80;97.50
20977;DHT22;10647;51.016;3.720;2022-07-29T05:44:26;19.90;97.40
20977;DHT22;10647;51.016;3.720;2022-07-29T05:46:54;19.90;97.20
20977;DHT22;10647;51.016;3.720;2022-07-29T05:49:22;20.00;97.10
20977;DHT22;10647;51.016;3.720;2022-07-29T05:51:49;20.00;97.00
20977;DHT22;10647;51.016;3.720;2022-07-29T05:54:18;20.10;96.90
20977;DHT22;10647;51.016;3.720;2022-07-29T05:56:46;20.30;96.80
20977;DHT22;10647;51.016;3.720;2022-07-29T05:59:20;20.30;96.60
20977;DHT22;10647;51.016;3.720;2022-07-29T06:01:47;20.40;96.50
20977;DHT22;10647;51.016;3.720;2022-07-29T06:04:30;20.50;96.40
20977;DHT22;10647;51.016;3.720;2022-07-29T06:06:58;20.50;96.30
20977;DHT22;10647;51.016;3.720;2022-07-29T06:09:26;20.60;96.20
20977;DHT22;10647;51.016;3.720;2022-07-29T06:11:53;20.60;96.00
20977;DHT22;10647;51.016;3.720;2022-07-29T06:14:21;20.60;96.00
20977;DHT22;10647;51.016;3.720;2022-07-29T06:16:48;20.70;95.90
20977;DHT22;10647;51.016;3.720;2022-07-29T06:19:17;20.80;95.80
20977;DHT22;10647;51.016;3.720;2022-07-29T06:21:47;20.90;95.70
20977;DHT22;10647;51.016;3.720;2022-07-29T06:24:22;20.90;95.60
20977;DHT22;10647;51.016;3.720;2022-07-29T06:26:54;20.90;95.50
20977;DHT22;10647;51.016;3.720;2022-07-29T06:29:23;21.00;95.40
20977;DHT22;10647;51.016;3.720;2022-07-29T06:31:50;21.10;95.70
20977;DHT22;10647;51.016;3.720;2022-07-29T06:34:18;21.10;95.30
20977;DHT22;10647;51.016;3.720;2022-07-29T06:36:51;21.20;95.20
20977;DHT22;10647;51.016;3.720;2022-07-29T06:39:19;21.30;95.00
20977;DHT22;10647;51.016;3.720;2022-07-29T06:41:48;21.40;95.00
20977;DHT22;10647;51.016;3.720;2022-07-29T06:44:18;21.40;94.80
20977;DHT22;10647;51.016;3.720;2022-07-29T06:47:05;21.50;94.60
20977;DHT22;10647;51.016;3.720;2022-07-29T06:49:32;21.60;94.70
20977;DHT22;10647;51.016;3.720;2022-07-29T06:52:00;21.70;94.40
20977;DHT22;10647;51.016;3.720;2022-07-29T06:54:28;21.80;94.20
20977;DHT22;10647;51.016;3.720;2022-07-29T06:56:57;21.80;94.10
20977;DHT22;10647;51.016;3.720;2022-07-29T06:59:25;21.80;94.10
20977;DHT22;10647;51.016;3.720;2022-07-29T07:01:53;21.90;94.20
20977;DHT22;10647;51.016;3.720;2022-07-29T07:04:20;21.90;94.10
20977;DHT22;10647;51.016;3.720;2022-07-29T07:06:48;22.00;94.10
20977;DHT22;10647;51.016;3.720;2022-07-29T07:09:15;22.10;94.00
20977;DHT22;10647;51.016;3.720;2022-07-29T07:11:43;22.10;94.00
20977;DHT22;10647;51.016;3.720;2022-07-29T07:14:10;22.20;93.90
20977;DHT22;10647;51.016;3.720;2022-07-29T07:16:37;22.30;93.70
20977;DHT22;10647;51.016;3.720;2022-07-29T07:19:05;22.40;93.60
20977;DHT22;10647;51.016;3.720;2022-07-29T07:21:33;22.50;93.40
20977;DHT22;10647;51.016;3.720;2022-07-29T07:24:01;22.50;93.20
20977;DHT22;10647;51.016;3.720;2022-07-29T07:26:29;22.60;93.10
20977;DHT22;10647;51.016;3.720;2022-07-29T07:28:57;22.60;93.00
20977;DHT22;10647;51.016;3.720;2022-07-29T07:31:27;22.70;93.10
20977;DHT22;10647;51.016;3.720;2022-07-29T07:33:55;22.70;92.80
20977;DHT22;10647;51.016;3.720;2022-07-29T07:36:23;22.80;92.80
20977;DHT22;10647;51.016;3.720;2022-07-29T07:38:53;22.80;92.70
20977;DHT22;10647;51.016;3.720;2022-07-29T07:41:21;22.90;92.70
20977;DHT22;10647;51.016;3.720;2022-07-29T07:43:49;23.00;92.70
20977;DHT22;10647;51.016;3.720;2022-07-29T07:46:17;22.90;92.50
20977;DHT22;10647;51.016;3.720;2022-07-29T07:48:45;23.00;92.40
20977;DHT22;10647;51.016;3.720;2022-07-29T07:51:14;23.20;92.40
20977;DHT22;10647;51.016;3.720;2022-07-29T07:53:41;23.20;92.20
20977;DHT22;10647;51.016;3.720;2022-07-29T07:56:11;23.30;92.10
20977;DHT22;10647;51.016;3.720;2022-07-29T07:58:40;23.40;92.00
20977;DHT22;10647;51.016;3.720;2022-07-29T08:01:11;23.50;91.80
20977;DHT22;10647;51.016;3.720;2022-07-29T08:03:39;23.60;91.70
20977;DHT22;10647;51.016;3.720;2022-07-29T08:06:10;23.60;91.50
20977;DHT22;10647;51.016;3.720;2022-07-29T08:08:37;23.70;91.40
20977;DHT22;10647;51.016;3.720;2022-07-29T08:11:05;23.70;91.50
20977;DHT22;10647;51.016;3.720;2022-07-29T08:13:33;23.70;91.40
20977;DHT22;10647;51.016;3.720;2022-07-29T08:16:03;23.70;91.40
20977;DHT22;10647;51.016;3.720;2022-07-29T08:18:32;23.70;91.40
20977;DHT22;10647;51.016;3.720;2022-07-29T08:21:00;23.90;91.20
20977;DHT22;10647;51.016;3.720;2022-07-29T08:23:28;24.00;91.10
20977;DHT22;10647;51.016;3.720;2022-07-29T08:25:57;24.10;91.10
20977;DHT22;10647;51.016;3.720;2022-07-29T08:28:24;24.20;91.00
20977;DHT22;10647;51.016;3.720;2022-07-29T08:30:52;24.20;90.60
20977;DHT22;10647;51.016;3.720;2022-07-29T08:33:19;24.30;90.70
20977;DHT22;10647;51.016;3.720;2022-07-29T08:35:47;24.40;90.60
20977;DHT22;10647;51.016;3.720;2022-07-29T08:38:17;24.40;90.50
20977;DHT22;10647;51.016;3.720;2022-07-29T08:40:46;24.50;90.00
20977;DHT22;10647;51.016;3.720;2022-07-29T08:43:13;24.60;90.00
20977;DHT22;10647;51.016;3.720;2022-07-29T08:45:44;24.60;89.80
20977;DHT22;10647;51.016;3.720;2022-07-29T08:48:13;24.60;89.80
20977;DHT22;10647;51.016;3.720;2022-07-29T08:50:42;24.70;89.30
20977;DHT22;10647;51.016;3.720;2022-07-29T08:53:13;24.80;88.30
20977;DHT22;10647;51.016;3.720;2022-07-29T08:55:46;24.80;87.60
20977;DHT22;10647;51.016;3.720;2022-07-29T08:58:14;24.90;87.40
20977;DHT22;10647;51.016;3.720;2022-07-29T09:00:46;25.00;86.90
20977;DHT22;10647;51.016;3.720;2022-07-29T09:03:16;25.00;86.70
20977;DHT22;10647;51.016;3.720;2022-07-29T09:05:46;25.10;86.30
20977;DHT22;10647;51.016;3.720;2022-07-29T09:08:15;25.20;86.80
20977;DHT22;10647;51.016;3.720;2022-07-29T09:10:44;25.30;86.40
20977;DHT22;10647;51.016;3.720;2022-07-29T09:13:12;25.40;86.20
20977;DHT22;10647;51.016;3.720;2022-07-29T09:15:39;25.40;86.20
20977;DHT22;10647;51.016;3.720;2022-07-29T09:18:07;25.50;85.70
20977;DHT22;10647;51.016;3.720;2022-07-29T09:20:34;25.60;85.00
20977;DHT22;10647;51.016;3.720;2022-07-29T09:23:20;25.60;84.50
20977;DHT22;10647;51.016;3.720;2022-07-29T09:25:48;25.70;84.30
20977;DHT22;10647;51.016;3.720;2022-07-29T09:28:17;25.80;84.30
20977;DHT22;10647;51.016;3.720;2022-07-29T09:30:56;25.90;84.60
20977;DHT22;10647;51.016;3.720;2022-07-29T09:33:33;25.90;83.90
20977;DHT22;10647;51.016;3.720;2022-07-29T09:36:07;25.90;83.70
20977;DHT22;10647;51.016;3.720;2022-07-29T09:38:36;26.00;83.60
20977;DHT22;10647;51.016;3.720;2022-07-29T09:41:04;26.10;82.50
20977;DHT22;10647;51.016;3.720;2022-07-29T09:43:33;26.10;82.70
20977;DHT22;10647;51.016;3.720;2022-07-29T09:46:12;26.10;83.20
20977;DHT22;10647;51.016;3.720;2022-07-29T09:48:40;26.20;82.10
20977;DHT22;10647;51.016;3.720;2022-07-29T09:51:18;26.30;81.80
20977;DHT22;10647;51.016;3.720;2022-07-29T09:53:46;26.40;81.20
20977;DHT22;10647;51.016;3.720;2022-07-29T09:56:13;26.40;81.30
20977;DHT22;10647;51.016;3.720;2022-07-29T09:58:41;26.50;80.70
20977;DHT22;10647;51.016;3.720;2022-07-29T10:01:09;26.60;80.80
20977;DHT22;10647;51.016;3.720;2022-07-29T10:03:52;26.70;79.50
20977;DHT22;10647;51.016;3.720;2022-07-29T10:06:20;26.80;78.60
20977;DHT22;10647;51.016;3.720;2022-07-29T10:08:47;26.80;76.30
20977;DHT22;10647;51.016;3.720;2022-07-29T10:11:18;26.90;76.30
20977;DHT22;10647;51.016;3.720;2022-07-29T10:13:47;27.00;76.00
20977;DHT22;10647;51.016;3.720;2022-07-29T10:16:16;27.00;75.60
20977;DHT22;10647;51.016;3.720;2022-07-29T10:18:44;27.00;75.60
20977;DHT22;10647;51.016;3.720;2022-07-29T10:21:13;27.00;76.10
20977;DHT22;10647;51.016;3.720;2022-07-29T10:23:41;27.20;76.20
20977;DHT22;10647;51.016;3.720;2022-07-29T10:26:10;27.30;76.00
20977;DHT22;10647;51.016;3.720;2022-07-29T10:28:38;27.40;75.70
20977;DHT22;10647;51.016;3.720;2022-07-29T10:31:07;27.50;75.50
20977;DHT22;10647;51.016;3.720;2022-07-29T10:34:46;27.60;75.30
20977;DHT22;10647;51.016;3.720;2022-07-29T10:44:23;28.20;72.70
20977;DHT22;10647;51.016;3.720;2022-07-29T10:46:49;28.40;71.90
20977;DHT22;10647;51.016;3.720;2022-07-29T10:49:18;28.60;71.70
20977;DHT22;10647;51.016;3.720;2022-07-29T10:54:44;29.00;70.70
20977;DHT22;10647;51.016;3.720;2022-07-29T10:57:21;29.30;70.30
20977;DHT22;10647;51.016;3.720;2022-07-29T11:05:12;29.40;67.70
20977;DHT22;10647;51.016;3.720;2022-07-29T11:10:27;29.20;67.00
20977;DHT22;10647;51.016;3.720;2022-07-29T11:12:54;29.10;66.40
20977;DHT22;10647;51.016;3.720;2022-07-29T11:15:22;29.20;66.00
20977;DHT22;10647;51.016;3.720;2022-07-29T11:26:20;30.20;64.10
20977;DHT22;10647;51.016;3.720;2022-07-29T11:31:42;30.50;63.50
20977;DHT22;10647;51.016;3.720;2022-07-29T11:34:32;30.30;63.60
20977;DHT22;10647;51.016;3.720;2022-07-29T11:47:28;30.10;63.60
20977;DHT22;10647;51.016;3.720;2022-07-29T11:49:57;30.10;63.40
20977;DHT22;10647;51.016;3.720;2022-07-29T11:52:36;30.00;63.60
20977;DHT22;10647;51.016;3.720;2022-07-29T11:55:06;29.80;63.90
20977;DHT22;10647;51.016;3.720;2022-07-29T11:57:34;29.60;64.00
20977;DHT22;10647;51.016;3.720;2022-07-29T12:00:07;29.80;64.20
20977;DHT22;10647;51.016;3.720;2022-07-29T12:02:43;30.00;63.90
20977;DHT22;10647;51.016;3.720;2022-07-29T12:05:11;30.10;63.30
20977;DHT22;10647;51.016;3.720;2022-07-29T12:07:39;30.40;62.70
20977;DHT22;10647;51.016;3.720;2022-07-29T12:10:08;30.70;62.20
20977;DHT22;10647;51.016;3.720;2022-07-29T12:12:35;30.80;61.40
20977;DHT22;10647;51.016;3.720;2022-07-29T12:15:13;31.10;60.80
20977;DHT22;10647;51.016;3.720;2022-07-29T12:17:41;31.30;60.40
20977;DHT22;10647;51.016;3.720;2022-07-29T12:20:09;31.40;60.10
20977;DHT22;10647;51.016;3.720;2022-07-29T12:22:39;31.50;60.00
20977;DHT22;10647;51.016;3.720;2022-07-29T12:25:13;31.60;59.50
20977;DHT22;10647;51.016;3.720;2022-07-29T12:27:38;31.60;59.30
20977;DHT22;10647;51.016;3.720;2022-07-29T12:30:11;31.60;58.80
20977;DHT22;10647;51.016;3.720;2022-07-29T12:32:48;31.60;58.50
20977;DHT22;10647;51.016;3.720;2022-07-29T12:35:18;31.40;58.50
20977;DHT22;10647;51.016;3.720;2022-07-29T12:37:49;31.30;58.70
20977;DHT22;10647;51.016;3.720;2022-07-29T12:40:20;31.10;58.90
20977;DHT22;10647;51.016;3.720;2022-07-29T12:43:08;31.00;58.90
20977;DHT22;10647;51.016;3.720;2022-07-29T12:45:37;30.90;59.10
20977;DHT22;10647;51.016;3.720;2022-07-29T12:48:06;30.90;59.20
20977;DHT22;10647;51.016;3.720;2022-07-29T12:53:22;31.10;59.00
20977;DHT22;10647;51.016;3.720;2022-07-29T12:55:52;31.20;58.80
20977;DHT22;10647;51.016;3.720;2022-07-29T12:58:38;31.30;59.00
20977;DHT22;10647;51.016;3.720;2022-07-29T13:01:11;31.40;58.80
20977;DHT22;10647;51.016;3.720;2022-07-29T13:03:57;31.50;58.10
20977;DHT22;10647;51.016;3.720;2022-07-29T13:06:35;31.60;57.30
20977;DHT22;10647;51.016;3.720;2022-07-29T13:09:19;31.80;56.60
20977;DHT22;10647;51.016;3.720;2022-07-29T13:11:50;32.80;56.20
20977;DHT22;10647;51.016;3.720;2022-07-29T13:14:32;37.20;52.20
20977;DHT22;10647;51.016;3.720;2022-07-29T13:19:44;44.00;44.90
20977;DHT22;10647;51.016;3.720;2022-07-29T13:22:14;45.70;42.80
20977;DHT22;10647;51.016;3.720;2022-07-29T13:24:53;44.00;42.30
20977;DHT22;10647;51.016;3.720;2022-07-29T13:27:23;40.50;44.60
20977;DHT22;10647;51.016;3.720;2022-07-29T13:29:52;38.10;46.70
20977;DHT22;10647;51.016;3.720;2022-07-29T13:32:20;36.60;48.30
20977;DHT22;10647;51.016;3.720;2022-07-29T13:34:48;37.80;47.90
20977;DHT22;10647;51.016;3.720;2022-07-29T13:37:16;40.20;45.70
20977;DHT22;10647;51.016;3.720;2022-07-29T13:39:46;39.40;45.10
20977;DHT22;10647;51.016;3.720;2022-07-29T13:42:14;42.20;44.20
20977;DHT22;10647;51.016;3.720;2022-07-29T13:44:41;41.20;43.40
20977;DHT22;10647;51.016;3.720;2022-07-29T13:47:09;40.10;44.70
20977;DHT22;10647;51.016;3.720;2022-07-29T13:49:37;43.30;42.80
20977;DHT22;10647;51.016;3.720;2022-07-29T13:52:04;44.90;41.10
20977;DHT22;10647;51.016;3.720;2022-07-29T13:54:33;46.70;39.90
20977;DHT22;10647;51.016;3.720;2022-07-29T13:57:03;47.70;38.50
20977;DHT22;10647;51.016;3.720;2022-07-29T13:59:31;48.50;37.70
20977;DHT22;10647;51.016;3.720;2022-07-29T14:01:59;48.70;36.90
20977;DHT22;10647;51.016;3.720;2022-07-29T14:04:26;49.20;36.80
20977;DHT22;10647;51.016;3.720;2022-07-29T14:06:54;49.90;35.60
20977;DHT22;10647;51.016;3.720;2022-07-29T14:09:22;50.00;35.40
20977;DHT22;10647;51.016;3.720;2022-07-29T14:11:49;50.30;34.50
20977;DHT22;10647;51.016;3.720;2022-07-29T14:14:19;50.30;34.40
20977;DHT22;10647;51.016;3.720;2022-07-29T14:16:47;46.10;36.00
20977;DHT22;10647;51.016;3.720;2022-07-29T14:19:14;44.50;38.00
20977;DHT22;10647;51.016;3.720;2022-07-29T14:21:42;45.60;37.70
20977;DHT22;10647;51.016;3.720;2022-07-29T14:24:10;47.00;36.40
20977;DHT22;10647;51.016;3.720;2022-07-29T14:26:38;48.10;35.50
20977;DHT22;10647;51.016;3.720;2022-07-29T14:29:06;48.80;34.70
20977;DHT22;10647;51.016;3.720;2022-07-29T14:31:33;45.60;35.70
20977;DHT22;10647;51.016;3.720;2022-07-29T14:34:01;46.30;36.40
20977;DHT22;10647;51.016;3.720;2022-07-29T14:36:29;46.90;35.80
20977;DHT22;10647;51.016;3.720;2022-07-29T14:38:56;48.00;35.50
20977;DHT22;10647;51.016;3.720;2022-07-29T14:41:24;49.00;34.40
20977;DHT22;10647;51.016;3.720;2022-07-29T14:43:51;46.60;34.70
20977;DHT22;10647;51.016;3.720;2022-07-29T14:46:19;44.70;36.30
20977;DHT22;10647;51.016;3.720;2022-07-29T14:48:48;42.60;38.10
20977;DHT22;10647;51.016;3.720;2022-07-29T14:51:15;41.50;39.30
20977;DHT22;10647;51.016;3.720;2022-07-29T14:53:43;39.80;40.90
20977;DHT22;10647;51.016;3.720;2022-07-29T14:56:11;39.20;42.50
20977;DHT22;10647;51.016;3.720;2022-07-29T14:58:39;39.10;42.50
20977;DHT22;10647;51.016;3.720;2022-07-29T15:01:07;39.10;43.20
20977;DHT22;10647;51.016;3.720;2022-07-29T15:03:34;42.20;41.10
20977;DHT22;10647;51.016;3.720;2022-07-29T15:06:02;44.30;39.00
20977;DHT22;10647;51.016;3.720;2022-07-29T15:08:29;45.40;37.80
20977;DHT22;10647;51.016;3.720;2022-07-29T15:10:57;46.20;37.00
20977;DHT22;10647;51.016;3.720;2022-07-29T15:13:26;46.60;36.20
20977;DHT22;10647;51.016;3.720;2022-07-29T15:15:53;46.70;36.00
20977;DHT22;10647;51.016;3.720;2022-07-29T15:18:21;44.20;37.00
20977;DHT22;10647;51.016;3.720;2022-07-29T15:20:48;42.50;38.60
20977;DHT22;10647;51.016;3.720;2022-07-29T15:23:16;44.20;38.30
20977;DHT22;10647;51.016;3.720;2022-07-29T15:25:43;44.40;37.90
20977;DHT22;10647;51.016;3.720;2022-07-29T15:28:11;44.10;38.20
20977;DHT22;10647;51.016;3.720;2022-07-29T15:30:38;44.80;38.00
20977;DHT22;10647;51.016;3.720;2022-07-29T15:33:09;45.30;37.40
20977;DHT22;10647;51.016;3.720;2022-07-29T15:35:37;45.10;37.30
20977;DHT22;10647;51.016;3.720;2022-07-29T15:38:05;42.80;38.10
20977;DHT22;10647;51.016;3.720;2022-07-29T15:40:32;40.40;40.20
20977;DHT22;10647;51.016;3.720;2022-07-29T15:43:04;38.40;42.80
20977;DHT22;10647;51.016;3.720;2022-07-29T15:45:41;36.80;44.90
20977;DHT22;10647;51.016;3.720;2022-07-29T15:48:06;35.50;46.70
20977;DHT22;10647;51.016;3.720;2022-07-29T15:50:35;34.40;48.20
20977;DHT22;10647;51.016;3.720;2022-07-29T15:53:02;33.80;49.40
20977;DHT22;10647;51.016;3.720;2022-07-29T15:55:32;33.00;50.70
20977;DHT22;10647;51.016;3.720;2022-07-29T15:58:00;32.60;51.70
20977;DHT22;10647;51.016;3.720;2022-07-29T16:00:28;33.10;51.80
20977;DHT22;10647;51.016;3.720;2022-07-29T16:02:56;33.70;50.90
20977;DHT22;10647;51.016;3.720;2022-07-29T16:05:23;33.10;51.20
20977;DHT22;10647;51.016;3.720;2022-07-29T16:07:51;32.30;52.10
20977;DHT22;10647;51.016;3.720;2022-07-29T16:10:19;31.60;53.20
20977;DHT22;10647;51.016;3.720;2022-07-29T16:12:46;31.20;54.10
20977;DHT22;10647;51.016;3.720;2022-07-29T16:15:18;30.90;54.60
20977;DHT22;10647;51.016;3.720;2022-07-29T16:17:45;30.70;55.10
20977;DHT22;10647;51.016;3.720;2022-07-29T16:20:13;30.60;55.40
20977;DHT22;10647;51.016;3.720;2022-07-29T16:22:40;30.50;55.70
20977;DHT22;10647;51.016;3.720;2022-07-29T16:25:08;30.30;55.80
20977;DHT22;10647;51.016;3.720;2022-07-29T16:27:36;30.10;56.10
20977;DHT22;10647;51.016;3.720;2022-07-29T16:30:05;30.00;56.40
20977;DHT22;10647;51.016;3.720;2022-07-29T16:32:34;30.00;56.80
20977;DHT22;10647;51.016;3.720;2022-07-29T16:35:02;29.70;57.10
20977;DHT22;10647;51.016;3.720;2022-07-29T16:37:30;29.60;57.50
20977;DHT22;10647;51.016;3.720;2022-07-29T16:40:00;29.50;57.60
20977;DHT22;10647;51.016;3.720;2022-07-29T16:42:28;29.30;57.80
20977;DHT22;10647;51.016;3.720;2022-07-29T16:44:55;29.20;58.30
20977;DHT22;10647;51.016;3.720;2022-07-29T16:47:23;29.10;58.60